sensor_id;sensor_type;location;lat;lon;timestamp;pressure;altitude;pressure_sealevel;temperature;humidity
20930;BME280;21895;47.072;15.132;2023-02-14T00:02:06;98548.00;;;-1.68;71.83
20930;BME280;21895;47.072;15.132;2023-02-14T00:04:33;98547.00;;;-1.69;72.66
20930;BME280;21895;47.072;15.132;2023-02-14T00:06:59;98537.00;;;-1.62;72.08
20930;BME280;21895;47.072;15.132;2023-02-14T00:09:26;98541.00;;;-1.66;70.78
20930;BME280;21895;47.072;15.132;2023-02-14T00:11:52;98537.00;;;-1.88;70.72
20930;BME280;21895;47.072;15.132;2023-02-14T00:14:19;98537.00;;;-2.14;70.78
20930;BME280;21895;47.072;15.132;2023-02-14T00:17:03;98541.00;;;-2.05;71.71
20930;BME280;21895;47.072;15.132;2023-02-14T00:19:30;98549.00;;;-2.08;71.34
20930;BME280;21895;47.072;15.132;2023-02-14T00:21:57;98558.00;;;-2.12;70.50
20930;BME280;21895;47.072;15.132;2023-02-14T00:24:25;98552.00;;;-2.14;71.70
20930;BME280;21895;47.072;15.132;2023-02-14T00:26:52;98562.00;;;-1.92;72.30
20930;BME280;21895;47.072;15.132;2023-02-14T00:29:23;98561.00;;;-1.80;72.47
20930;BME280;21895;47.072;15.132;2023-02-14T00:31:50;98567.00;;;-1.89;72.91
20930;BME280;21895;47.072;15.132;2023-02-14T00:34:17;98577.00;;;-1.81;74.09
20930;BME280;21895;47.072;15.132;2023-02-14T00:36:45;98566.00;;;-1.70;74.68
20930;BME280;21895;47.072;15.132;2023-02-14T00:39:13;98577.00;;;-1.52;74.67
20930;BME280;21895;47.072;15.132;2023-02-14T00:41:41;98579.00;;;-1.61;73.65
20930;BME280;21895;47.072;15.132;2023-02-14T00:44:09;98583.00;;;-1.68;72.72
20930;BME280;21895;47.072;15.132;2023-02-14T00:46:36;98592.00;;;-1.70;71.53
20930;BME280;21895;47.072;15.132;2023-02-14T00:49:03;98597.00;;;-1.69;72.06
20930;BME280;21895;47.072;15.132;2023-02-14T00:51:33;98581.00;;;-1.53;73.32
20930;BME280;21895;47.072;15.132;2023-02-14T00:53:59;98585.00;;;-1.58;73.65
20930;BME280;21895;47.072;15.132;2023-02-14T00:56:27;98586.00;;;-1.47;73.75
20930;BME280;21895;47.072;15.132;2023-02-14T00:58:53;98585.00;;;-1.33;72.75
20930;BME280;21895;47.072;15.132;2023-02-14T01:01:20;98597.00;;;-1.39;73.54
20930;BME280;21895;47.072;15.132;2023-02-14T01:03:46;98587.00;;;-1.17;74.27
20930;BME280;21895;47.072;15.132;2023-02-14T01:06:14;98588.00;;;-1.15;74.87
20930;BME280;21895;47.072;15.132;2023-02-14T01:08:40;98587.00;;;-1.16;74.12
20930;BME280;21895;47.072;15.132;2023-02-14T01:11:17;98582.00;;;-1.43;70.77
20930;BME280;21895;47.072;15.132;2023-02-14T01:13:47;98574.00;;;-1.65;70.72
20930;BME280;21895;47.072;15.132;2023-02-14T01:16:17;98587.00;;;-1.81;70.92
20930;BME280;21895;47.072;15.132;2023-02-14T01:18:44;98574.00;;;-2.04;70.58
20930;BME280;21895;47.072;15.132;2023-02-14T01:21:26;98572.00;;;-1.82;72.92
20930;BME280;21895;47.072;15.132;2023-02-14T01:23:57;98566.00;;;-1.59;74.19
20930;BME280;21895;47.072;15.132;2023-02-14T01:26:24;98559.00;;;-1.69;71.91
20930;BME280;21895;47.072;15.132;2023-02-14T01:28:51;98555.00;;;-1.77;71.72
20930;BME280;21895;47.072;15.132;2023-02-14T01:31:22;98553.00;;;-1.81;72.43
20930;BME280;21895;47.072;15.132;2023-02-14T01:33:49;98545.00;;;-1.80;72.72
20930;BME280;21895;47.072;15.132;2023-02-14T01:36:23;98547.00;;;-1.70;72.75
20930;BME280;21895;47.072;15.132;2023-02-14T01:38:57;98544.00;;;-1.55;73.11
20930;BME280;21895;47.072;15.132;2023-02-14T01:41:27;98540.00;;;-1.65;73.90
20930;BME280;21895;47.072;15.132;2023-02-14T01:45:36;98531.00;;;-1.73;74.45
20930;BME280;21895;47.072;15.132;2023-02-14T01:48:02;98524.00;;;-1.74;74.75
20930;BME280;21895;47.072;15.132;2023-02-14T01:50:33;98523.00;;;-1.74;74.57
20930;BME280;21895;47.072;15.132;2023-02-14T01:53:10;98532.00;;;-1.65;74.67
20930;BME280;21895;47.072;15.132;2023-02-14T01:55:51;98530.00;;;-1.60;72.87
20930;BME280;21895;47.072;15.132;2023-02-14T01:58:23;98524.00;;;-1.86;72.10
20930;BME280;21895;47.072;15.132;2023-02-14T02:00:50;98532.00;;;-1.91;72.99
20930;BME280;21895;47.072;15.132;2023-02-14T02:03:42;98528.00;;;-1.96;73.28
20930;BME280;21895;47.072;15.132;2023-02-14T02:06:48;98530.00;;;-1.87;71.99
20930;BME280;21895;47.072;15.132;2023-02-14T02:10:04;98539.00;;;-2.12;70.88
20930;BME280;21895;47.072;15.132;2023-02-14T02:12:33;98522.00;;;-2.15;70.69
20930;BME280;21895;47.072;15.132;2023-02-14T02:15:05;98526.00;;;-2.21;71.02
20930;BME280;21895;47.072;15.132;2023-02-14T02:19:43;98523.00;;;-2.31;71.23
20930;BME280;21895;47.072;15.132;2023-02-14T02:24:36;98526.00;;;-2.34;71.66
20930;BME280;21895;47.072;15.132;2023-02-14T02:27:47;98535.00;;;-2.53;71.14
20930;BME280;21895;47.072;15.132;2023-02-14T02:39:26;98540.00;;;-2.42;70.58
20930;BME280;21895;47.072;15.132;2023-02-14T02:42:45;98546.00;;;-2.93;71.35
20930;BME280;21895;47.072;15.132;2023-02-14T02:45:50;98550.00;;;-2.87;71.28
20930;BME280;21895;47.072;15.132;2023-02-14T02:50:39;98550.00;;;-2.72;73.14
20930;BME280;21895;47.072;15.132;2023-02-14T02:53:57;98550.00;;;-2.55;70.82
20930;BME280;21895;47.072;15.132;2023-02-14T02:56:35;98549.00;;;-2.76;70.08
20930;BME280;21895;47.072;15.132;2023-02-14T02:59:48;98552.00;;;-2.81;71.21
20930;BME280;21895;47.072;15.132;2023-02-14T03:02:54;98561.00;;;-2.88;71.12
20930;BME280;21895;47.072;15.132;2023-02-14T03:05:40;98560.00;;;-2.97;71.00
20930;BME280;21895;47.072;15.132;2023-02-14T03:08:07;98559.00;;;-3.10;71.57
20930;BME280;21895;47.072;15.132;2023-02-14T03:10:37;98554.00;;;-3.00;71.91
20930;BME280;21895;47.072;15.132;2023-02-14T03:14:48;98561.00;;;-2.89;72.02
20930;BME280;21895;47.072;15.132;2023-02-14T03:17:58;98559.00;;;-3.02;70.11
20930;BME280;21895;47.072;15.132;2023-02-14T03:21:59;98552.00;;;-3.09;71.34
20930;BME280;21895;47.072;15.132;2023-02-14T03:24:55;98549.00;;;-3.01;71.23
20930;BME280;21895;47.072;15.132;2023-02-14T03:27:40;98551.00;;;-2.97;70.58
20930;BME280;21895;47.072;15.132;2023-02-14T03:30:32;98548.00;;;-2.94;71.09
20930;BME280;21895;47.072;15.132;2023-02-14T03:33:15;98555.00;;;-2.74;71.33
20930;BME280;21895;47.072;15.132;2023-02-14T03:36:05;98554.00;;;-2.70;70.32
20930;BME280;21895;47.072;15.132;2023-02-14T03:39:08;98557.00;;;-2.98;69.66
20930;BME280;21895;47.072;15.132;2023-02-14T03:41:45;98546.00;;;-2.96;71.16
20930;BME280;21895;47.072;15.132;2023-02-14T03:44:19;98544.00;;;-3.03;71.50
20930;BME280;21895;47.072;15.132;2023-02-14T03:46:57;98542.00;;;-2.98;72.65
20930;BME280;21895;47.072;15.132;2023-02-14T03:49:31;98542.00;;;-2.74;73.42
20930;BME280;21895;47.072;15.132;2023-02-14T03:52:03;98530.00;;;-2.56;74.30
20930;BME280;21895;47.072;15.132;2023-02-14T03:54:32;98536.00;;;-2.67;72.87
20930;BME280;21895;47.072;15.132;2023-02-14T03:57:38;98540.00;;;-2.68;73.17
20930;BME280;21895;47.072;15.132;2023-02-14T04:00:09;98535.00;;;-2.67;72.64
20930;BME280;21895;47.072;15.132;2023-02-14T04:02:41;98539.00;;;-2.63;72.54
20930;BME280;21895;47.072;15.132;2023-02-14T04:05:25;98529.00;;;-2.60;71.15
20930;BME280;21895;47.072;15.132;2023-02-14T04:07:55;98532.00;;;-2.88;69.82
20930;BME280;21895;47.072;15.132;2023-02-14T04:10:23;98530.00;;;-3.00;69.61
20930;BME280;21895;47.072;15.132;2023-02-14T04:12:51;98529.00;;;-3.17;70.04
20930;BME280;21895;47.072;15.132;2023-02-14T04:15:18;98530.00;;;-3.21;70.23
20930;BME280;21895;47.072;15.132;2023-02-14T04:17:45;98529.00;;;-3.32;70.61
20930;BME280;21895;47.072;15.132;2023-02-14T04:22:48;98522.00;;;-3.34;70.84
20930;BME280;21895;47.072;15.132;2023-02-14T04:25:18;98512.00;;;-3.27;71.39
20930;BME280;21895;47.072;15.132;2023-02-14T04:27:45;98513.00;;;-3.25;71.31
20930;BME280;21895;47.072;15.132;2023-02-14T04:30:12;98511.00;;;-3.09;71.19
20930;BME280;21895;47.072;15.132;2023-02-14T04:32:40;98508.00;;;-3.08;70.29
20930;BME280;21895;47.072;15.132;2023-02-14T04:35:07;98510.00;;;-3.16;69.81
20930;BME280;21895;47.072;15.132;2023-02-14T04:37:33;98511.00;;;-3.22;70.17
20930;BME280;21895;47.072;15.132;2023-02-14T04:40:00;98509.00;;;-3.21;70.29
20930;BME280;21895;47.072;15.132;2023-02-14T04:42:26;98507.00;;;-3.24;70.74
20930;BME280;21895;47.072;15.132;2023-02-14T04:44:53;98499.00;;;-3.24;70.51
20930;BME280;21895;47.072;15.132;2023-02-14T04:47:19;98492.00;;;-3.30;70.24
20930;BME280;21895;47.072;15.132;2023-02-14T04:49:46;98492.00;;;-3.36;70.90
20930;BME280;21895;47.072;15.132;2023-02-14T04:52:12;98500.00;;;-3.46;70.53
20930;BME280;21895;47.072;15.132;2023-02-14T04:54:40;98489.00;;;-3.43;71.47
20930;BME280;21895;47.072;15.132;2023-02-14T04:57:06;98486.00;;;-3.38;71.74
20930;BME280;21895;47.072;15.132;2023-02-14T04:59:33;98480.00;;;-3.23;72.42
20930;BME280;21895;47.072;15.132;2023-02-14T05:01:59;98487.00;;;-3.15;72.17
20930;BME280;21895;47.072;15.132;2023-02-14T05:04:26;98486.00;;;-2.99;71.00
20930;BME280;21895;47.072;15.132;2023-02-14T05:06:52;98477.00;;;-3.10;71.00
20930;BME280;21895;47.072;15.132;2023-02-14T05:09:19;98487.00;;;-3.24;70.31
20930;BME280;21895;47.072;15.132;2023-02-14T05:11:46;98485.00;;;-3.37;70.42
20930;BME280;21895;47.072;15.132;2023-02-14T05:14:12;98480.00;;;-3.26;70.70
20930;BME280;21895;47.072;15.132;2023-02-14T05:16:39;98480.00;;;-3.21;70.85
20930;BME280;21895;47.072;15.132;2023-02-14T05:19:05;98482.00;;;-3.28;70.86
20930;BME280;21895;47.072;15.132;2023-02-14T05:21:32;98486.00;;;-3.27;70.10
20930;BME280;21895;47.072;15.132;2023-02-14T05:23:59;98485.00;;;-3.33;69.95
20930;BME280;21895;47.072;15.132;2023-02-14T05:26:27;98489.00;;;-3.37;69.95
20930;BME280;21895;47.072;15.132;2023-02-14T05:28:53;98489.00;;;-3.54;70.20
20930;BME280;21895;47.072;15.132;2023-02-14T05:31:20;98481.00;;;-3.49;70.31
20930;BME280;21895;47.072;15.132;2023-02-14T05:33:47;98476.00;;;-3.55;69.82
20930;BME280;21895;47.072;15.132;2023-02-14T05:36:13;98475.00;;;-3.66;70.13
20930;BME280;21895;47.072;15.132;2023-02-14T05:38:40;98485.00;;;-3.56;70.63
20930;BME280;21895;47.072;15.132;2023-02-14T05:41:06;98486.00;;;-3.48;72.52
20930;BME280;21895;47.072;15.132;2023-02-14T05:43:33;98476.00;;;-3.30;72.51
20930;BME280;21895;47.072;15.132;2023-02-14T05:45:59;98483.00;;;-3.30;70.61
20930;BME280;21895;47.072;15.132;2023-02-14T05:48:26;98480.00;;;-3.47;70.27
20930;BME280;21895;47.072;15.132;2023-02-14T05:50:52;98477.00;;;-3.50;70.25
20930;BME280;21895;47.072;15.132;2023-02-14T05:53:22;98479.00;;;-3.73;70.80
20930;BME280;21895;47.072;15.132;2023-02-14T05:55:48;98474.00;;;-3.76;70.83
20930;BME280;21895;47.072;15.132;2023-02-14T05:58:15;98476.00;;;-3.70;71.35
20930;BME280;21895;47.072;15.132;2023-02-14T06:00:41;98471.00;;;-3.65;71.11
20930;BME280;21895;47.072;15.132;2023-02-14T06:03:08;98475.00;;;-3.56;71.18
20930;BME280;21895;47.072;15.132;2023-02-14T06:05:34;98474.00;;;-3.55;71.22
20930;BME280;21895;47.072;15.132;2023-02-14T06:08:01;98465.00;;;-3.43;71.55
20930;BME280;21895;47.072;15.132;2023-02-14T06:10:28;98469.00;;;-3.28;71.78
20930;BME280;21895;47.072;15.132;2023-02-14T06:12:54;98471.00;;;-3.14;70.51
20930;BME280;21895;47.072;15.132;2023-02-14T06:15:21;98470.00;;;-3.29;69.40
20930;BME280;21895;47.072;15.132;2023-02-14T06:17:56;98469.00;;;-3.31;69.41
20930;BME280;21895;47.072;15.132;2023-02-14T06:20:23;98477.00;;;-3.29;69.25
20930;BME280;21895;47.072;15.132;2023-02-14T06:22:51;98468.00;;;-3.30;70.89
20930;BME280;21895;47.072;15.132;2023-02-14T06:25:18;98469.00;;;-3.06;72.92
20930;BME280;21895;47.072;15.132;2023-02-14T06:27:45;98474.00;;;-3.00;71.94
20930;BME280;21895;47.072;15.132;2023-02-14T06:30:17;98468.00;;;-2.94;70.28
20930;BME280;21895;47.072;15.132;2023-02-14T06:32:43;98467.00;;;-3.26;70.17
20930;BME280;21895;47.072;15.132;2023-02-14T06:35:10;98462.00;;;-3.37;71.35
20930;BME280;21895;47.072;15.132;2023-02-14T06:37:37;98462.00;;;-3.42;72.14
20930;BME280;21895;47.072;15.132;2023-02-14T06:40:04;98466.00;;;-3.21;72.54
20930;BME280;21895;47.072;15.132;2023-02-14T06:42:31;98459.00;;;-2.93;72.29
20930;BME280;21895;47.072;15.132;2023-02-14T06:44:57;98463.00;;;-2.84;71.25
20930;BME280;21895;47.072;15.132;2023-02-14T06:47:24;98466.00;;;-2.74;70.85
20930;BME280;21895;47.072;15.132;2023-02-14T06:49:50;98470.00;;;-2.60;70.35
20930;BME280;21895;47.072;15.132;2023-02-14T06:52:17;98470.00;;;-2.53;70.29
20930;BME280;21895;47.072;15.132;2023-02-14T06:54:43;98474.00;;;-2.39;70.54
20930;BME280;21895;47.072;15.132;2023-02-14T06:57:10;98461.00;;;-2.34;70.89
20930;BME280;21895;47.072;15.132;2023-02-14T06:59:36;98466.00;;;-2.17;71.33
20930;BME280;21895;47.072;15.132;2023-02-14T07:02:03;98466.00;;;-2.09;71.02
20930;BME280;21895;47.072;15.132;2023-02-14T07:04:29;98455.00;;;-2.06;71.13
20930;BME280;21895;47.072;15.132;2023-02-14T07:06:57;98461.00;;;-2.01;71.33
20930;BME280;21895;47.072;15.132;2023-02-14T07:09:23;98455.00;;;-1.87;71.90
20930;BME280;21895;47.072;15.132;2023-02-14T07:11:50;98458.00;;;-1.67;70.78
20930;BME280;21895;47.072;15.132;2023-02-14T07:14:16;98449.00;;;-1.54;70.47
20930;BME280;21895;47.072;15.132;2023-02-14T07:16:43;98453.00;;;-1.42;70.60
20930;BME280;21895;47.072;15.132;2023-02-14T07:19:09;98450.00;;;-1.15;70.54
20930;BME280;21895;47.072;15.132;2023-02-14T07:21:36;98447.00;;;-1.01;70.16
20930;BME280;21895;47.072;15.132;2023-02-14T07:24:02;98442.00;;;-1.07;70.43
20930;BME280;21895;47.072;15.132;2023-02-14T07:26:29;98441.00;;;-1.06;71.30
20930;BME280;21895;47.072;15.132;2023-02-14T07:28:55;98447.00;;;-0.80;71.68
20930;BME280;21895;47.072;15.132;2023-02-14T07:31:22;98444.00;;;-0.82;72.53
20930;BME280;21895;47.072;15.132;2023-02-14T07:33:50;98439.00;;;-0.57;72.64
20930;BME280;21895;47.072;15.132;2023-02-14T07:36:17;98434.00;;;-0.43;73.02
20930;BME280;21895;47.072;15.132;2023-02-14T07:38:44;98433.00;;;-0.26;73.23
20930;BME280;21895;47.072;15.132;2023-02-14T07:41:10;98422.00;;;-0.02;72.91
20930;BME280;21895;47.072;15.132;2023-02-14T07:43:37;98423.00;;;0.18;73.05
20930;BME280;21895;47.072;15.132;2023-02-14T07:46:05;98427.00;;;0.26;73.41
20930;BME280;21895;47.072;15.132;2023-02-14T07:48:31;98418.00;;;0.47;73.69
20930;BME280;21895;47.072;15.132;2023-02-14T07:51:00;98417.00;;;0.71;73.55
20930;BME280;21895;47.072;15.132;2023-02-14T07:53:28;98420.00;;;0.93;73.55
20930;BME280;21895;47.072;15.132;2023-02-14T07:55:54;98413.00;;;1.13;73.35
20930;BME280;21895;47.072;15.132;2023-02-14T07:58:21;98413.00;;;1.16;73.21
20930;BME280;21895;47.072;15.132;2023-02-14T08:00:47;98411.00;;;1.44;72.95
20930;BME280;21895;47.072;15.132;2023-02-14T08:03:14;98401.00;;;1.44;72.88
20930;BME280;21895;47.072;15.132;2023-02-14T08:05:41;98405.00;;;1.56;72.81
20930;BME280;21895;47.072;15.132;2023-02-14T08:08:07;98397.00;;;1.68;72.82
20930;BME280;21895;47.072;15.132;2023-02-14T08:10:34;98394.00;;;1.72;72.80
20930;BME280;21895;47.072;15.132;2023-02-14T08:13:00;98396.00;;;2.01;72.55
20930;BME280;21895;47.072;15.132;2023-02-14T08:15:34;98405.00;;;2.19;72.42
20930;BME280;21895;47.072;15.132;2023-02-14T08:18:21;98397.00;;;2.18;71.90
20930;BME280;21895;47.072;15.132;2023-02-14T08:20:52;98389.00;;;2.27;71.49
20930;BME280;21895;47.072;15.132;2023-02-14T08:23:19;98401.00;;;2.51;71.28
20930;BME280;21895;47.072;15.132;2023-02-14T08:25:48;98394.00;;;2.55;70.89
20930;BME280;21895;47.072;15.132;2023-02-14T08:28:15;98387.00;;;2.63;70.58
20930;BME280;21895;47.072;15.132;2023-02-14T08:30:43;98384.00;;;2.77;70.82
20930;BME280;21895;47.072;15.132;2023-02-14T08:33:10;98389.00;;;3.03;70.77
20930;BME280;21895;47.072;15.132;2023-02-14T08:35:37;98393.00;;;3.18;70.26
20930;BME280;21895;47.072;15.132;2023-02-14T08:38:04;98379.00;;;3.41;70.25
20930;BME280;21895;47.072;15.132;2023-02-14T08:40:33;98383.00;;;3.41;69.88
20930;BME280;21895;47.072;15.132;2023-02-14T08:43:00;98378.00;;;3.77;69.28
20930;BME280;21895;47.072;15.132;2023-02-14T08:45:26;98391.00;;;3.69;69.67
20930;BME280;21895;47.072;15.132;2023-02-14T08:47:53;98393.00;;;3.85;69.64
20930;BME280;21895;47.072;15.132;2023-02-14T08:50:20;98396.00;;;3.92;68.98
20930;BME280;21895;47.072;15.132;2023-02-14T08:52:46;98397.00;;;4.08;68.83
20930;BME280;21895;47.072;15.132;2023-02-14T08:55:13;98406.00;;;4.46;67.91
20930;BME280;21895;47.072;15.132;2023-02-14T08:57:40;98404.00;;;4.45;68.05
20930;BME280;21895;47.072;15.132;2023-02-14T09:00:08;98395.00;;;4.54;67.96
20930;BME280;21895;47.072;15.132;2023-02-14T09:02:35;98401.00;;;4.71;67.78
20930;BME280;21895;47.072;15.132;2023-02-14T09:05:01;98399.00;;;4.84;67.32
20930;BME280;21895;47.072;15.132;2023-02-14T09:07:28;98402.00;;;5.02;66.55
20930;BME280;21895;47.072;15.132;2023-02-14T09:09:54;98403.00;;;4.96;66.73
20930;BME280;21895;47.072;15.132;2023-02-14T09:12:21;98409.00;;;5.26;65.29
20930;BME280;21895;47.072;15.132;2023-02-14T09:14:47;98409.00;;;5.29;65.00
20930;BME280;21895;47.072;15.132;2023-02-14T09:17:15;98418.00;;;5.24;64.50
20930;BME280;21895;47.072;15.132;2023-02-14T09:19:42;98421.00;;;5.45;64.03
20930;BME280;21895;47.072;15.132;2023-02-14T09:22:10;98418.00;;;5.83;63.17
20930;BME280;21895;47.072;15.132;2023-02-14T09:24:38;98419.00;;;5.88;63.55
20930;BME280;21895;47.072;15.132;2023-02-14T09:27:05;98420.00;;;5.98;62.94
20930;BME280;21895;47.072;15.132;2023-02-14T09:29:32;98421.00;;;6.00;63.45
20930;BME280;21895;47.072;15.132;2023-02-14T09:32:00;98417.00;;;6.01;63.42
20930;BME280;21895;47.072;15.132;2023-02-14T09:34:28;98424.00;;;6.02;63.75
20930;BME280;21895;47.072;15.132;2023-02-14T09:36:55;98425.00;;;6.35;63.03
20930;BME280;21895;47.072;15.132;2023-02-14T09:39:39;98422.00;;;6.50;62.67
20930;BME280;21895;47.072;15.132;2023-02-14T09:44:28;98417.00;;;6.66;62.12
20930;BME280;21895;47.072;15.132;2023-02-14T09:47:33;98427.00;;;6.79;62.41
20930;BME280;21895;47.072;15.132;2023-02-14T09:50:15;98427.00;;;7.00;62.14
20930;BME280;21895;47.072;15.132;2023-02-14T09:52:49;98420.00;;;6.94;62.22
20930;BME280;21895;47.072;15.132;2023-02-14T09:55:17;98418.00;;;6.94;62.20
20930;BME280;21895;47.072;15.132;2023-02-14T09:58:17;98417.00;;;7.17;61.85
20930;BME280;21895;47.072;15.132;2023-02-14T10:00:56;98415.00;;;7.37;60.87
20930;BME280;21895;47.072;15.132;2023-02-14T10:07:54;98418.00;;;7.60;59.68
20930;BME280;21895;47.072;15.132;2023-02-14T10:11:10;98407.00;;;8.02;58.79
20930;BME280;21895;47.072;15.132;2023-02-14T10:13:50;98415.00;;;8.04;58.44
20930;BME280;21895;47.072;15.132;2023-02-14T10:16:41;98405.00;;;8.12;58.24
20930;BME280;21895;47.072;15.132;2023-02-14T10:19:33;98415.00;;;8.31;57.21
20930;BME280;21895;47.072;15.132;2023-02-14T10:22:13;98409.00;;;8.56;57.22
20930;BME280;21895;47.072;15.132;2023-02-14T10:25:30;98404.00;;;8.47;57.16
20930;BME280;21895;47.072;15.132;2023-02-14T10:28:01;98403.00;;;8.50;56.89
20930;BME280;21895;47.072;15.132;2023-02-14T10:30:37;98393.00;;;8.52;56.50
20930;BME280;21895;47.072;15.132;2023-02-14T10:33:28;98395.00;;;8.44;56.82
20930;BME280;21895;47.072;15.132;2023-02-14T10:36:07;98385.00;;;8.57;56.65
20930;BME280;21895;47.072;15.132;2023-02-14T10:46:14;98384.00;;;8.63;56.81
20930;BME280;21895;47.072;15.132;2023-02-14T10:49:53;98365.00;;;8.81;56.17
20930;BME280;21895;47.072;15.132;2023-02-14T10:53:37;98371.00;;;8.99;55.19
20930;BME280;21895;47.072;15.132;2023-02-14T10:56:30;98362.00;;;8.89;55.04
20930;BME280;21895;47.072;15.132;2023-02-14T10:59:26;98364.00;;;8.89;55.54
20930;BME280;21895;47.072;15.132;2023-02-14T11:01:55;98361.00;;;8.97;55.40
20930;BME280;21895;47.072;15.132;2023-02-14T11:04:25;98357.00;;;9.10;55.48
20930;BME280;21895;47.072;15.132;2023-02-14T11:06:52;98357.00;;;9.14;54.73
20930;BME280;21895;47.072;15.132;2023-02-14T11:09:19;98352.00;;;9.32;53.76
20930;BME280;21895;47.072;15.132;2023-02-14T11:11:52;98353.00;;;9.37;54.03
20930;BME280;21895;47.072;15.132;2023-02-14T11:14:33;98349.00;;;9.32;53.48
20930;BME280;21895;47.072;15.132;2023-02-14T11:17:29;98343.00;;;9.64;52.33
20930;BME280;21895;47.072;15.132;2023-02-14T11:20:22;98341.00;;;9.34;53.18
20930;BME280;21895;47.072;15.132;2023-02-14T11:22:49;98340.00;;;9.64;52.39
20930;BME280;21895;47.072;15.132;2023-02-14T11:25:26;98337.00;;;9.59;52.13
20930;BME280;21895;47.072;15.132;2023-02-14T11:28:13;98335.00;;;9.81;51.65
20930;BME280;21895;47.072;15.132;2023-02-14T11:30:45;98326.00;;;9.78;52.02
20930;BME280;21895;47.072;15.132;2023-02-14T11:33:36;98326.00;;;9.85;51.31
20930;BME280;21895;47.072;15.132;2023-02-14T11:36:10;98336.00;;;9.88;51.71
20930;BME280;21895;47.072;15.132;2023-02-14T11:38:39;98320.00;;;9.85;52.00
20930;BME280;21895;47.072;15.132;2023-02-14T11:41:10;98327.00;;;10.04;51.57
20930;BME280;21895;47.072;15.132;2023-02-14T11:43:43;98319.00;;;10.10;51.55
20930;BME280;21895;47.072;15.132;2023-02-14T11:47:23;98322.00;;;9.89;51.12
20930;BME280;21895;47.072;15.132;2023-02-14T11:50:03;98321.00;;;9.97;51.20
20930;BME280;21895;47.072;15.132;2023-02-14T11:52:49;98324.00;;;9.86;51.72
20930;BME280;21895;47.072;15.132;2023-02-14T11:55:30;98315.00;;;9.91;50.92
20930;BME280;21895;47.072;15.132;2023-02-14T11:58:03;98315.00;;;10.24;49.56
20930;BME280;21895;47.072;15.132;2023-02-14T12:00:31;98312.00;;;10.00;50.25
20930;BME280;21895;47.072;15.132;2023-02-14T12:03:03;98304.00;;;10.03;50.87
20930;BME280;21895;47.072;15.132;2023-02-14T12:05:44;98308.00;;;10.15;50.41
20930;BME280;21895;47.072;15.132;2023-02-14T12:08:13;98312.00;;;10.13;50.65
20930;BME280;21895;47.072;15.132;2023-02-14T12:10:40;98299.00;;;10.26;50.62
20930;BME280;21895;47.072;15.132;2023-02-14T12:13:28;98302.00;;;10.25;50.98
20930;BME280;21895;47.072;15.132;2023-02-14T12:15:57;98303.00;;;10.18;52.01
20930;BME280;21895;47.072;15.132;2023-02-14T12:19:01;98298.00;;;9.99;53.11
20930;BME280;21895;47.072;15.132;2023-02-14T12:21:55;98295.00;;;10.25;52.48
20930;BME280;21895;47.072;15.132;2023-02-14T12:24:37;98296.00;;;10.13;52.92
20930;BME280;21895;47.072;15.132;2023-02-14T12:27:27;98291.00;;;10.00;53.41
20930;BME280;21895;47.072;15.132;2023-02-14T12:30:09;98286.00;;;9.95;53.31
20930;BME280;21895;47.072;15.132;2023-02-14T12:32:50;98285.00;;;9.85;53.37
20930;BME280;21895;47.072;15.132;2023-02-14T12:53:46;98271.00;;;10.68;50.87
20930;BME280;21895;47.072;15.132;2023-02-14T12:58:24;98261.00;;;10.57;51.62
20930;BME280;21895;47.072;15.132;2023-02-14T13:03:00;98260.00;;;10.48;51.82
20930;BME280;21895;47.072;15.132;2023-02-14T13:07:30;98255.00;;;10.50;51.72
20930;BME280;21895;47.072;15.132;2023-02-14T13:11:50;98253.00;;;10.82;50.99
20930;BME280;21895;47.072;15.132;2023-02-14T13:21:18;98246.00;;;10.67;50.90
20930;BME280;21895;47.072;15.132;2023-02-14T13:23:52;98246.00;;;10.43;51.73
20930;BME280;21895;47.072;15.132;2023-02-14T13:26:35;98245.00;;;10.24;52.13
20930;BME280;21895;47.072;15.132;2023-02-14T13:29:15;98238.00;;;10.57;51.32
20930;BME280;21895;47.072;15.132;2023-02-14T13:31:44;98244.00;;;10.56;51.00
20930;BME280;21895;47.072;15.132;2023-02-14T13:34:33;98238.00;;;10.43;51.29
20930;BME280;21895;47.072;15.132;2023-02-14T13:37:05;98244.00;;;10.56;50.92
20930;BME280;21895;47.072;15.132;2023-02-14T13:39:41;98240.00;;;10.45;51.41
20930;BME280;21895;47.072;15.132;2023-02-14T13:42:12;98245.00;;;10.37;52.12
20930;BME280;21895;47.072;15.132;2023-02-14T13:44:47;98247.00;;;10.30;51.72
20930;BME280;21895;47.072;15.132;2023-02-14T13:47:25;98238.00;;;10.23;51.56
20930;BME280;21895;47.072;15.132;2023-02-14T13:49:59;98235.00;;;10.26;51.80
20930;BME280;21895;47.072;15.132;2023-02-14T13:52:47;98238.00;;;10.39;51.30
20930;BME280;21895;47.072;15.132;2023-02-14T13:55:22;98234.00;;;10.57;50.73
20930;BME280;21895;47.072;15.132;2023-02-14T13:58:16;98238.00;;;10.51;50.73
20930;BME280;21895;47.072;15.132;2023-02-14T14:00:47;98235.00;;;10.34;51.11
20930;BME280;21895;47.072;15.132;2023-02-14T14:04:03;98230.00;;;10.51;50.83
20930;BME280;21895;47.072;15.132;2023-02-14T14:07:17;98223.00;;;10.43;50.70
20930;BME280;21895;47.072;15.132;2023-02-14T14:09:55;98226.00;;;10.52;50.52
20930;BME280;21895;47.072;15.132;2023-02-14T14:12:55;98222.00;;;10.56;50.59
20930;BME280;21895;47.072;15.132;2023-02-14T14:15:21;98215.00;;;10.47;50.87
20930;BME280;21895;47.072;15.132;2023-02-14T14:18:36;98221.00;;;10.45;50.77
20930;BME280;21895;47.072;15.132;2023-02-14T14:21:28;98221.00;;;10.32;51.45
20930;BME280;21895;47.072;15.132;2023-02-14T14:24:25;98225.00;;;10.30;50.99
20930;BME280;21895;47.072;15.132;2023-02-14T14:27:41;98218.00;;;10.24;51.16
20930;BME280;21895;47.072;15.132;2023-02-14T14:30:25;98228.00;;;10.27;50.39
20930;BME280;21895;47.072;15.132;2023-02-14T14:32:56;98215.00;;;10.15;51.05
20930;BME280;21895;47.072;15.132;2023-02-14T14:35:38;98231.00;;;10.18;50.92
20930;BME280;21895;47.072;15.132;2023-02-14T14:38:04;98228.00;;;10.22;51.01
20930;BME280;21895;47.072;15.132;2023-02-14T14:40:35;98231.00;;;10.27;50.96
20930;BME280;21895;47.072;15.132;2023-02-14T14:43:35;98226.00;;;10.15;51.28